Time;durP1;ratioP1;P1;durP2;ratioP2;P2;SDS_P1;SDS_P2;PMS_P1;PMS_P2;Temp;Humidity;BMP_temperature;BMP_pressure;BME280_temperature;BME280_humidity;BME280_pressure;Samples;Min_cycle;Max_cycle;Signal;HPM_P1;HPM_P2
2023/09/12 00:02:12;;;;;;;9.50;8.70;;;;;;;19.31;100.00;96092.59;5050027;27;102357;-89
2023/09/12 00:04:40;;;;;;;9.23;8.53;;;;;;;19.29;100.00;96097.53;5049870;27;105619;-89
2023/09/12 00:07:10;;;;;;;8.90;8.10;;;;;;;19.06;100.00;96094.06;5052734;27;105794;-92
2023/09/12 00:09:42;;;;;;;8.90;8.10;;;;;;;19.00;100.00;96095.31;5050034;27;104307;-92
2023/09/12 00:12:15;;;;;;;8.53;7.87;;;;;;;18.92;100.00;96092.56;5049369;27;105235;-92
2023/09/12 00:14:44;;;;;;;9.50;8.70;;;;;;;18.84;100.00;96093.31;5049803;27;101907;-92
2023/09/12 00:17:11;;;;;;;9.87;9.07;;;;;;;18.67;100.00;96099.41;5049839;27;105229;-92
2023/09/12 00:19:38;;;;;;;9.83;8.93;;;;;;;18.63;100.00;96100.34;5048976;27;105107;-91
2023/09/12 00:22:06;;;;;;;9.40;8.50;;;;;;;18.83;100.00;96102.50;5049178;27;102208;-91
2023/09/12 00:24:35;;;;;;;9.20;8.33;;;;;;;18.92;100.00;96101.44;5066052;27;105414;-91
2023/09/12 00:27:05;;;;;;;10.60;9.50;;;;;;;19.12;100.00;96100.13;5052476;27;104490;-86
2023/09/12 00:29:34;;;;;;;9.17;8.37;;;;;;;19.16;100.00;96091.09;5049599;27;103868;-85
2023/09/12 00:32:01;;;;;;;9.57;8.67;;;;;;;19.25;100.00;96085.75;5048995;27;105757;-85
2023/09/12 00:34:28;;;;;;;9.73;8.90;;;;;;;18.99;100.00;96082.13;5066761;27;102411;-84
2023/09/12 00:36:55;;;;;;;9.83;8.93;;;;;;;18.73;100.00;96081.19;5049538;27;105214;-84
2023/09/12 00:39:22;;;;;;;9.60;8.70;;;;;;;18.79;100.00;96082.66;5048778;27;105025;-83
2023/09/12 00:41:49;;;;;;;11.10;10.07;;;;;;;18.92;100.00;96093.34;5049074;27;101954;-86
2023/09/12 00:56:02;;;;;;;9.70;8.73;;;;;;;18.60;100.00;96082.91;4908504;28;102218;-82
2023/09/12 00:58:29;;;;;;;9.97;9.07;;;;;;;18.55;100.00;96077.63;4931675;28;102085;-82
2023/09/12 01:01:04;;;;;;;9.10;8.40;;;;;;;18.51;100.00;96076.66;4931445;28;104995;-82
2023/09/12 01:03:32;;;;;;;10.17;9.17;;;;;;;18.48;100.00;96082.63;4947613;28;103340;-83
2023/09/12 01:06:02;;;;;;;9.97;9.07;;;;;;;18.49;100.00;96072.69;4931496;28;102232;-88
2023/09/12 01:08:30;;;;;;;10.23;9.23;;;;;;;18.49;100.00;96075.38;4931469;28;105652;-88
2023/09/12 01:11:00;;;;;;;9.63;8.73;;;;;;;18.53;100.00;96076.34;4931299;28;105484;-88
2023/09/12 01:13:30;;;;;;;10.87;9.73;;;;;;;18.54;100.00;96080.63;4934074;28;102192;-88
2023/09/12 01:15:57;;;;;;;10.00;9.00;;;;;;;18.45;100.00;96072.50;4952350;28;105996;-88
2023/09/12 01:18:24;;;;;;;10.37;9.47;;;;;;;18.32;100.00;96078.72;4951091;28;102000;-88
2023/09/12 01:21:13;;;;;;;9.97;9.17;;;;;;;18.23;100.00;96077.84;4953437;28;105706;-88
2023/09/12 01:23:53;;;;;;;10.47;9.47;;;;;;;18.22;100.00;96078.16;4973285;28;105374;-88
2023/09/12 01:26:48;;;;;;;10.30;9.40;;;;;;;18.27;100.00;96078.03;4988237;28;101879;-88
2023/09/12 01:29:22;;;;;;;10.97;9.90;;;;;;;18.32;100.00;96084.09;4990697;28;102903;-88
2023/09/12 01:31:52;;;;;;;10.00;9.10;;;;;;;18.32;100.00;96083.34;4998959;27;105586;-88
2023/09/12 01:34:22;;;;;;;10.50;9.60;;;;;;;18.20;100.00;96083.06;5068693;27;101948;-88
2023/09/12 01:36:52;;;;;;;10.50;9.60;;;;;;;17.96;100.00;96074.47;5068592;27;104273;-88
2023/09/12 01:39:19;;;;;;;9.97;9.17;;;;;;;17.95;100.00;96071.00;5053869;27;105959;-87
2023/09/12 01:41:48;;;;;;;9.50;8.60;;;;;;;17.96;100.00;96074.47;5053137;27;101727;-87
2023/09/12 01:44:23;;;;;;;9.70;8.80;;;;;;;17.94;100.00;96080.13;5051260;27;105119;-87
2023/09/12 01:46:52;;;;;;;9.97;9.17;;;;;;;18.05;100.00;96078.03;5051841;27;101923;-88
2023/09/12 01:49:22;;;;;;;10.23;9.33;;;;;;;18.12;100.00;96081.09;5051752;27;105260;-89
2023/09/12 01:51:50;;;;;;;10.80;9.77;;;;;;;17.97;100.00;96068.78;5051201;27;105566;-89
2023/09/12 01:54:18;;;;;;;10.30;9.40;;;;;;;17.83;100.00;96072.63;5051570;27;102139;-87
2023/09/12 01:56:47;;;;;;;10.13;9.23;;;;;;;17.74;100.00;96067.16;5051542;27;105054;-87
2023/09/12 01:59:17;;;;;;;11.00;10.10;;;;;;;17.65;100.00;96068.97;5067708;27;105639;-87
2023/09/12 02:01:45;;;;;;;10.30;9.40;;;;;;;17.68;100.00;96072.94;5054186;27;102042;-90
2023/09/12 02:04:12;;;;;;;10.70;9.80;;;;;;;17.73;100.00;96067.47;5067956;27;105187;-87
2023/09/12 02:06:42;;;;;;;11.20;10.17;;;;;;;17.86;100.00;96080.06;5068824;27;102197;-92
2023/09/12 02:09:12;;;;;;;11.00;9.90;;;;;;;17.92;100.00;96087.72;5050503;27;105251;-82
2023/09/12 02:12:04;;;;;;;11.43;10.20;;;;;;;17.96;100.00;96094.09;5051041;27;105114;-82
2023/09/12 02:14:54;;;;;;;10.77;9.77;;;;;;;18.04;100.00;96089.91;5033640;27;101884;-82
2023/09/12 02:17:23;;;;;;;12.23;11.13;;;;;;;18.17;100.00;96091.72;5034561;27;105077;-82
2023/09/12 02:19:52;;;;;;;12.03;11.03;;;;;;;18.13;100.00;96082.66;5032546;27;104386;-82
2023/09/12 02:22:19;;;;;;;11.53;10.40;;;;;;;18.20;100.00;96097.28;5033434;27;101977;-82
2023/09/12 02:25:32;;;;;;;10.97;10.07;;;;;;;18.28;100.00;96098.47;5035979;27;103967;-82
2023/09/12 02:32:03;;;;;;;9.90;9.00;;;;;;;17.74;100.00;96098.63;4988746;28;102222;-82
2023/09/12 02:34:33;;;;;;;10.77;9.87;;;;;;;17.65;100.00;96089.69;4972096;28;105025;-82
2023/09/12 02:37:11;;;;;;;9.70;8.80;;;;;;;17.65;100.00;96098.53;5024840;27;102199;-82
2023/09/12 02:39:39;;;;;;;10.10;9.27;;;;;;;17.72;100.00;96111.59;5050406;27;104450;-82
2023/09/12 02:42:27;;;;;;;12.07;10.97;;;;;;;17.58;100.00;96105.44;5050439;27;104007;-82
2023/09/12 02:44:57;;;;;;;12.70;11.40;;;;;;;17.48;100.00;96102.94;5049994;27;101944;-89
2023/09/12 02:47:27;;;;;;;11.47;10.30;;;;;;;17.54;100.00;96107.16;5053436;27;104839;-90
2023/09/12 02:49:55;;;;;;;11.17;10.17;;;;;;;17.40;100.00;96103.66;5050693;27;102094;-87
2023/09/12 02:52:24;;;;;;;12.20;10.87;;;;;;;17.79;100.00;96109.28;5050216;27;105195;-89
2023/09/12 02:54:51;;;;;;;11.50;10.47;;;;;;;17.75;100.00;96113.66;5066905;27;105216;-89
2023/09/12 02:57:18;;;;;;;11.93;10.93;;;;;;;17.70;100.00;96111.09;5049683;27;102097;-86
2023/09/12 02:59:46;;;;;;;11.53;10.50;;;;;;;17.68;100.00;96110.59;5066520;27;105404;-83
2023/09/12 03:02:14;;;;;;;11.40;10.30;;;;;;;17.58;100.00;96102.72;5048750;27;105738;-85
2023/09/12 03:04:43;;;;;;;10.80;9.90;;;;;;;17.50;100.00;96101.53;5066698;27;102111;-86
2023/09/12 03:07:13;;;;;;;10.50;9.60;;;;;;;17.42;100.00;96104.16;5067472;27;105499;-86
2023/09/12 03:09:41;;;;;;;10.57;9.67;;;;;;;17.28;100.00;96098.75;5053257;27;105419;-86
2023/09/12 03:12:08;;;;;;;11.43;10.43;;;;;;;17.15;100.00;96096.88;5050593;27;105605;-84
2023/09/12 03:14:36;;;;;;;10.60;9.60;;;;;;;17.16;100.00;96100.34;5048874;27;105587;-87
2023/09/12 03:17:05;;;;;;;10.70;9.57;;;;;;;17.04;100.00;96102.72;5036600;27;101971;-87
2023/09/12 03:19:32;;;;;;;10.80;10.00;;;;;;;16.88;100.00;96098.72;5051808;27;102515;-86
2023/09/12 03:21:59;;;;;;;11.47;10.27;;;;;;;16.82;100.00;96094.53;5048807;27;105751;-91
2023/09/12 03:24:28;;;;;;;10.33;9.53;;;;;;;16.79;100.00;96098.59;5049489;27;101987;-92
2023/09/12 03:26:58;;;;;;;10.17;9.27;;;;;;;16.86;100.00;96095.53;5050867;27;104144;-93
2023/09/12 03:29:28;;;;;;;10.30;9.40;;;;;;;17.04;100.00;96102.72;5032827;27;104640;-88
2023/09/12 03:31:55;;;;;;;11.27;10.27;;;;;;;17.27;100.00;96101.75;5070895;27;101981;-91
2023/09/12 03:34:32;;;;;;;10.93;10.03;;;;;;;17.02;100.00;96104.91;5031612;27;103813;-93
2023/09/12 03:37:02;;;;;;;11.40;10.40;;;;;;;17.14;100.00;96103.34;5066666;27;101846;-92
2023/09/12 03:39:31;;;;;;;10.67;9.77;;;;;;;17.18;100.00;96106.22;5032090;27;106044;-93
2023/09/12 03:41:58;;;;;;;12.20;11.00;;;;;;;17.33;100.00;96104.03;5033038;27;103289;-93
2023/09/12 03:44:28;;;;;;;12.00;10.87;;;;;;;17.25;100.00;96101.22;5032513;27;101998;-87
2023/09/12 03:46:56;;;;;;;12.07;10.77;;;;;;;17.43;100.00;96108.44;5032550;27;104817;-86
2023/09/12 03:49:23;;;;;;;12.03;10.83;;;;;;;17.35;100.00;96103.72;5032151;27;105754;-86
2023/09/12 03:51:50;;;;;;;11.63;10.63;;;;;;;17.25;100.00;96101.22;5032051;27;101886;-84
2023/09/12 03:54:18;;;;;;;11.47;10.47;;;;;;;17.27;100.00;96101.75;5034587;27;104827;-84
2023/09/12 03:56:46;;;;;;;12.53;11.30;;;;;;;17.28;100.00;96098.75;5031736;27;101956;-85
2023/09/12 03:59:22;;;;;;;12.37;11.20;;;;;;;17.15;100.00;96104.13;5031450;27;105602;-85
2023/09/12 04:01:49;;;;;;;11.27;10.27;;;;;;;16.98;100.00;96099.34;5031159;27;104676;-88
2023/09/12 04:04:16;;;;;;;11.33;10.40;;;;;;;16.77;100.00;96102.69;5065537;27;101858;-86
2023/09/12 04:06:43;;;;;;;11.77;10.57;;;;;;;16.91;100.00;96108.88;5065985;27;105458;-87
2023/09/12 04:09:11;;;;;;;12.30;11.20;;;;;;;16.94;100.00;96119.03;5047956;27;104564;-86
2023/09/12 04:11:39;;;;;;;11.70;10.63;;;;;;;16.93;100.00;96109.38;5048771;27;101905;-86
2023/09/12 04:17:24;;;;;;;12.07;10.90;;;;;;;17.13;100.00;96111.69;5051826;27;105981;-85
2023/09/12 04:19:51;;;;;;;13.57;12.23;;;;;;;17.21;100.00;96119.03;5048853;27;104266;-85
2023/09/12 04:22:18;;;;;;;12.00;10.83;;;;;;;17.15;100.00;96114.88;5065169;27;105814;-85
2023/09/12 04:24:45;;;;;;;11.10;10.20;;;;;;;17.01;100.00;96106.00;5048454;27;102071;-85
2023/09/12 04:27:12;;;;;;;12.50;11.30;;;;;;;16.76;100.00;96099.22;5048313;27;104920;-82
2023/09/12 04:29:46;;;;;;;11.63;10.63;;;;;;;16.84;100.00;96105.78;5047907;27;105667;-83
2023/09/12 04:32:23;;;;;;;12.17;11.03;;;;;;;16.76;100.00;96106.47;5048277;27;102008;-82
2023/09/12 04:34:50;;;;;;;12.73;11.43;;;;;;;16.89;100.00;96111.09;5048271;27;104260;-86
2023/09/12 04:37:17;;;;;;;12.87;10.73;;;;;;;16.85;100.00;96115.44;5047938;27;105563;-84
2023/09/12 04:39:44;;;;;;;13.07;11.83;;;;;;;16.56;100.00;96102.25;5051593;27;102148;-84
2023/09/12 04:42:12;;;;;;;11.70;10.63;;;;;;;16.76;100.00;96109.97;5048491;27;105212;-82
2023/09/12 04:44:43;;;;;;;13.20;11.87;;;;;;;16.69;100.00;96098.00;5048779;27;101895;-82
2023/09/12 04:47:15;;;;;;;14.00;10.80;;;;;;;16.81;100.00;96103.69;5064800;27;105348;-83
2023/09/12 04:49:44;;;;;;;11.90;10.70;;;;;;;16.85;100.00;96099.31;5064971;27;105465;-83
2023/09/12 04:52:11;;;;;;;12.17;10.97;;;;;;;16.82;100.00;96097.22;5064656;27;102042;-83
2023/09/12 04:54:38;;;;;;;12.10;11.00;;;;;;;16.98;100.00;96095.84;5065805;27;105266;-83
2023/09/12 04:57:09;;;;;;;11.87;10.87;;;;;;;16.90;100.00;96102.69;5065542;27;105654;-84
2023/09/12 04:59:42;;;;;;;12.13;11.03;;;;;;;16.66;100.00;96095.91;5068970;27;102183;-84
2023/09/12 05:02:09;;;;;;;12.67;11.37;;;;;;;17.38;100.00;96105.84;5048263;27;105259;-83
2023/09/12 05:04:39;;;;;;;11.63;10.43;;;;;;;17.61;100.00;96110.22;5048639;27;102182;-83
2023/09/12 05:07:07;;;;;;;11.97;10.87;;;;;;;17.44;100.00;96102.75;5048687;27;104448;-83
2023/09/12 05:09:34;;;;;;;11.53;10.47;;;;;;;17.01;100.00;96098.72;5048159;27;105182;-83
2023/09/12 05:12:05;;;;;;;11.80;10.70;;;;;;;17.01;100.00;96103.31;5048591;27;101903;-83
2023/09/12 05:14:33;;;;;;;12.27;10.70;;;;;;;17.08;100.00;96103.72;5048469;27;105039;-83
2023/09/12 05:17:01;;;;;;;11.23;10.13;;;;;;;17.20;100.00;96101.34;5047896;27;103878;-83
2023/09/12 05:19:31;;;;;;;11.13;10.13;;;;;;;17.22;100.00;96105.31;5048628;27;101981;-83
2023/09/12 05:22:00;;;;;;;11.10;10.00;;;;;;;17.16;100.00;96095.75;5051478;27;105489;-83
2023/09/12 05:24:27;;;;;;;12.00;10.80;;;;;;;17.05;100.00;96107.03;5048035;27;102023;-83
2023/09/12 05:26:54;;;;;;;11.30;10.10;;;;;;;17.41;100.00;96111.44;5048161;27;105513;-83
2023/09/12 05:29:21;;;;;;;11.80;10.70;;;;;;;17.32;100.00;96107.81;5049176;27;101909;-83
2023/09/12 05:31:50;;;;;;;11.07;9.90;;;;;;;17.19;100.00;96105.13;5048390;27;101865;-83
2023/09/12 05:34:21;;;;;;;9.93;9.03;;;;;;;17.31;100.00;96110.78;5049127;27;105492;-83
2023/09/12 05:36:49;;;;;;;11.27;10.23;;;;;;;17.43;100.00;96109.22;5065815;27;105055;-83
2023/09/12 05:39:21;;;;;;;10.70;9.70;;;;;;;17.53;100.00;96108.22;5047757;27;101974;-83
2023/09/12 05:41:48;;;;;;;12.37;10.57;;;;;;;17.66;100.00;96110.88;5049037;27;105793;-83
2023/09/12 05:44:18;;;;;;;10.97;9.87;;;;;;;18.06;100.00;96114.59;5067713;27;105004;-83
2023/09/12 05:46:49;;;;;;;14.37;11.40;;;;;;;18.15;100.00;96123.56;5048902;27;105059;-83
2023/09/12 05:49:17;;;;;;;13.57;11.43;;;;;;;18.22;100.00;96123.91;5047579;27;105922;-83
2023/09/12 05:51:55;;;;;;;11.27;10.13;;;;;;;18.40;100.00;96123.78;5048073;27;101886;-83
2023/09/12 05:54:24;;;;;;;12.80;11.60;;;;;;;18.53;100.00;96120.22;5064421;27;105014;-83
2023/09/12 05:56:56;;;;;;;12.03;10.80;;;;;;;18.57;100.00;96115.00;5047317;27;105636;-83
2023/09/12 05:59:23;;;;;;;11.07;10.07;;;;;;;18.78;100.00;96110.72;5050262;27;103417;-83
2023/09/12 06:01:52;;;;;;;11.40;10.23;;;;;;;19.14;100.00;96114.84;5050491;27;105183;-83
2023/09/12 06:04:22;;;;;;;12.03;10.00;;;;;;;19.18;100.00;96115.06;5050160;27;105420;-83
2023/09/12 06:06:50;;;;;;;14.00;10.17;;;;;;;19.41;100.00;96111.22;5054191;27;102001;-83
2023/09/12 06:09:20;;;;;;;10.97;9.70;;;;;;;19.41;100.00;96113.91;5051467;27;103232;-83
2023/09/12 06:11:51;;;;;;;10.50;9.67;;;;;;;19.45;100.00;96106.78;5051443;27;101982;-83
2023/09/12 06:14:18;;;;;;;11.10;9.97;;;;;;;19.60;100.00;96112.53;5051717;27;105760;-83
2023/09/12 06:16:54;;;;;;;11.40;10.20;;;;;;;19.75;100.00;96116.69;5051199;27;103091;-83
2023/09/12 06:19:27;;;;;;;10.23;9.33;;;;;;;19.69;100.00;96112.53;5050593;27;101955;-83
2023/09/12 06:21:57;;;;;;;11.23;10.13;;;;;;;19.88;100.00;96110.34;5051243;27;105069;-84
2023/09/12 06:24:27;;;;;;;11.40;10.30;;;;;;;19.92;100.00;96119.41;5049784;27;105489;-84
2023/09/12 06:26:57;;;;;;;11.50;10.50;;;;;;;19.99;100.00;96114.38;5050107;27;101960;-84
2023/09/12 06:29:24;;;;;;;12.23;11.10;;;;;;;20.06;100.00;96120.06;5053216;27;104160;-84
2023/09/12 06:32:02;;;;;;;12.20;11.10;;;;;;;20.20;100.00;96118.03;5050207;27;102328;-87
2023/09/12 06:37:47;;;;;;;11.87;10.67;;;;;;;19.63;100.00;96121.91;5025157;27;105564;-89
2023/09/12 06:40:18;;;;;;;12.47;11.13;;;;;;;19.23;100.00;96128.44;5042315;27;102071;-80
2023/09/12 06:43:18;;;;;;;13.97;11.47;;;;;;;19.16;100.00;96128.03;5030543;27;103302;-80
2023/09/12 06:46:18;;;;;;;;;;;;;;;;;;;;;
2023/09/12 06:48:45;;;;;;;15.40;10.73;;;;;;;19.70;100.00;96120.34;5026053;28;102022;-84
2023/09/12 06:51:24;;;;;;;13.40;11.23;;;;;;;19.66;100.00;96121.25;5009729;28;103537;-83
2023/09/12 06:54:05;;;;;;;14.20;11.40;;;;;;;19.95;100.00;96129.59;5012230;28;101971;-82
2023/09/12 06:56:37;;;;;;;12.63;10.83;;;;;;;20.01;100.00;96128.31;5030477;27;105143;-82
2023/09/12 06:59:19;;;;;;;12.13;10.83;;;;;;;20.35;100.00;96122.97;5028479;28;106064;-82
2023/09/12 07:01:52;;;;;;;14.47;10.90;;;;;;;20.54;100.00;96121.53;5029182;27;102192;-82
2023/09/12 07:04:23;;;;;;;12.03;10.60;;;;;;;20.72;100.00;96131.19;5030574;28;102939;-77
2023/09/12 07:07:02;;;;;;;11.77;10.50;;;;;;;20.78;100.00;96129.94;5022889;28;104043;-85
2023/09/12 07:09:35;;;;;;;12.47;10.67;;;;;;;20.77;100.00;96135.66;5028065;28;101854;-83
2023/09/12 07:12:07;;;;;;;14.53;10.90;;;;;;;20.94;100.00;96133.75;5029129;27;105235;-83
2023/09/12 07:14:45;;;;;;;11.60;9.97;;;;;;;21.14;100.00;96134.97;5015199;28;105049;-82
2023/09/12 07:17:14;;;;;;;11.87;9.87;;;;;;;21.23;100.00;96139.22;5019376;28;105479;-84
2023/09/12 07:19:41;;;;;;;11.83;10.53;;;;;;;21.35;100.00;96133.13;5029142;28;105628;-82
2023/09/12 07:22:08;;;;;;;12.40;11.10;;;;;;;21.51;100.00;96132.28;5028499;28;101844;-84
2023/09/12 07:24:35;;;;;;;11.23;9.90;;;;;;;21.68;100.00;96126.81;5045941;27;105205;-85
2023/09/12 07:27:02;;;;;;;13.57;11.10;;;;;;;21.48;100.00;96140.25;5028859;27;105444;-85
2023/09/12 07:29:29;;;;;;;12.70;11.37;;;;;;;21.74;100.00;96128.19;5028391;28;101846;-81
2023/09/12 07:31:56;;;;;;;12.27;10.27;;;;;;;21.89;100.00;96138.47;5025528;27;104020;-82
2023/09/12 07:34:25;;;;;;;11.30;10.10;;;;;;;22.01;100.00;96135.06;5031623;27;105190;-82
2023/09/12 07:36:53;;;;;;;14.30;10.27;;;;;;;21.94;100.00;96132.06;5031083;28;101907;-82
2023/09/12 07:39:22;;;;;;;11.57;10.47;;;;;;;22.13;100.00;96129.72;5027488;28;105011;-81
2023/09/12 07:41:49;;;;;;;10.93;9.83;;;;;;;22.13;100.00;96133.22;5028587;28;102062;-82
2023/09/12 07:44:16;;;;;;;13.00;11.33;;;;;;;22.17;100.00;96133.38;5029706;28;105551;-81
2023/09/12 07:46:44;;;;;;;11.80;10.70;;;;;;;22.21;100.00;96139.69;5042145;27;105539;-81
2023/09/12 07:49:11;;;;;;;11.73;10.30;;;;;;;22.39;100.00;96133.03;5011607;28;101991;-82
2023/09/12 07:51:39;;;;;;;11.03;10.10;;;;;;;22.43;100.00;96139.38;5011957;28;105196;-80
2023/09/12 07:54:06;;;;;;;11.40;10.40;;;;;;;22.66;100.00;96135.25;5011306;28;104349;-82
2023/09/12 07:56:33;;;;;;;13.37;10.90;;;;;;;22.87;100.00;96125.94;5011937;28;101837;-83
2023/09/12 07:59:00;;;;;;;11.17;10.13;;;;;;;23.04;100.00;96128.47;5030766;28;102611;-86
2023/09/12 08:01:28;;;;;;;11.50;10.40;;;;;;;22.93;100.00;96143.56;5029834;28;101833;-81
2023/09/12 08:03:55;;;;;;;11.10;10.00;;;;;;;22.92;100.00;96146.59;5045269;27;104005;-81
2023/09/12 08:06:25;;;;;;;10.83;9.90;;;;;;;23.03;100.00;96150.50;5027478;28;105680;-81
2023/09/12 08:08:54;;;;;;;13.03;10.20;;;;;;;23.31;100.00;96146.88;5028633;28;102037;-84
2023/09/12 08:11:21;;;;;;;10.60;9.70;;;;;;;23.58;100.00;96148.13;5027863;28;103879;-84
2023/09/12 08:13:50;;;;;;;11.80;10.73;;;;;;;23.29;100.00;96145.63;5045361;27;105461;-84
2023/09/12 08:16:17;;;;;;;11.23;10.10;;;;;;;23.53;100.00;96145.63;5044773;27;101963;-84
2023/09/12 08:18:44;;;;;;;11.00;10.10;;;;;;;23.32;100.00;96148.44;5028025;28;105521;-84
2023/09/12 08:21:11;;;;;;;11.40;10.30;;;;;;;23.50;100.00;96135.47;5031834;27;104830;-84
2023/09/12 08:23:38;;;;;;;10.97;9.97;;;;;;;23.66;100.00;96141.81;5028462;28;105199;-84
2023/09/12 08:26:07;;;;;;;10.77;9.67;;;;;;;24.04;100.00;96139.56;5027554;28;105707;-88
2023/09/12 08:28:34;;;;;;;10.30;9.40;;;;;;;24.19;100.00;96136.16;5012086;28;102043;-91
2023/09/12 08:31:01;;;;;;;10.50;9.60;;;;;;;24.28;100.00;96134.88;5012315;28;104934;-90
2023/09/12 08:33:28;;;;;;;11.00;10.10;;;;;;;24.24;100.00;96134.00;5028577;28;105068;-88
2023/09/12 08:35:55;;;;;;;11.07;10.03;;;;;;;24.26;100.00;96131.72;5028093;28;102266;-87
2023/09/12 08:38:22;;;;;;;11.57;10.37;;;;;;;24.27;100.00;96140.66;5008336;28;105454;-89
2023/09/12 08:40:50;;;;;;;10.90;9.90;;;;;;;24.38;100.00;96139.84;4988909;28;104873;-88
2023/09/12 08:43:19;;;;;;;10.90;10.00;;;;;;;24.66;100.00;96134.47;4994864;28;102063;-91
2023/09/12 08:45:47;;;;;;;10.83;9.83;;;;;;;24.81;100.00;96139.16;4991118;28;105342;-95
2023/09/12 08:48:16;;;;;;;10.10;9.20;;;;;;;25.18;100.00;96137.88;4991423;28;102073;-82
2023/09/12 08:50:44;;;;;;;11.03;10.07;;;;;;;25.20;100.00;96136.38;4990673;28;105032;-86
2023/09/12 08:53:11;;;;;;;11.07;10.07;;;;;;;25.11;100.00;96135.72;4990512;28;104187;-86
2023/09/12 08:55:40;;;;;;;9.80;8.90;;;;;;;25.46;100.00;96133.97;4990252;28;101997;-93
2023/09/12 08:58:07;;;;;;;10.80;9.80;;;;;;;25.63;100.00;96128.19;4990248;28;105204;-86
2023/09/12 09:00:37;;;;;;;11.13;10.07;;;;;;;25.41;100.00;96130.72;5008894;28;102771;-91
2023/09/12 09:03:04;;;;;;;11.40;10.40;;;;;;;24.85;100.00;96131.91;4995335;28;102103;-81
2023/09/12 09:05:32;;;;;;;11.63;10.53;;;;;;;25.19;100.00;96129.34;5006742;28;105192;-81
2023/09/12 09:08:01;;;;;;;10.60;9.70;;;;;;;25.23;100.00;96126.72;5006975;28;101939;-79
2023/09/12 09:10:32;;;;;;;11.13;9.67;;;;;;;25.39;100.00;96127.56;5008015;28;105074;-78
2023/09/12 09:12:59;;;;;;;11.07;10.17;;;;;;;25.70;100.00;96127.53;4990842;28;105677;-77
2023/09/12 09:15:27;;;;;;;11.47;10.47;;;;;;;25.48;100.00;96133.59;4989813;28;102074;-78
2023/09/12 09:18:00;;;;;;;11.87;10.90;;;;;;;25.13;100.00;96133.44;4990308;28;103710;-76
2023/09/12 09:20:29;;;;;;;10.37;9.53;;;;;;;25.83;100.00;96129.03;5006587;28;105114;-77
2023/09/12 09:23:05;;;;;;;10.83;9.93;;;;;;;25.72;100.00;96128.00;4990897;28;101955;-76
2023/09/12 09:25:32;;;;;;;11.20;10.30;;;;;;;25.63;100.00;96130.91;5010853;28;103613;-76
2023/09/12 09:27:59;;;;;;;10.43;9.40;;;;;;;25.42;100.00;96126.84;4989780;28;101998;-76
2023/09/12 09:30:43;;;;;;;10.80;9.90;;;;;;;25.76;100.00;96128.84;4988018;28;105195;-77
2023/09/12 09:33:12;;;;;;;12.50;9.53;;;;;;;26.21;100.00;96121.00;5012524;28;106060;-77
2023/09/12 09:35:42;;;;;;;10.87;9.77;;;;;;;26.47;100.00;96123.88;5031587;28;102074;-77
2023/09/12 09:38:09;;;;;;;11.07;9.83;;;;;;;26.51;100.00;96113.84;5026913;27;105675;-77
2023/09/12 09:40:37;;;;;;;10.27;9.37;;;;;;;26.76;100.00;96121.41;5011679;28;103114;-77
2023/09/12 09:43:05;;;;;;;9.93;9.07;;;;;;;26.84;100.00;96125.88;5021603;28;101958;-77
2023/09/12 09:45:33;;;;;;;9.83;9.03;;;;;;;26.73;100.00;96116.69;4994922;28;105445;-77
2023/09/12 09:48:06;;;;;;;10.47;9.47;;;;;;;27.19;100.00;96117.59;5014367;28;104885;-76
2023/09/12 09:50:37;;;;;;;10.00;9.10;;;;;;;26.85;100.00;96123.91;5012635;28;102550;-79
2023/09/12 09:53:08;;;;;;;11.07;9.97;;;;;;;26.48;100.00;96111.84;4993797;28;106815;-82
2023/09/12 09:55:35;;;;;;;9.80;9.00;;;;;;;26.67;100.00;96112.66;4993856;28;102171;-80
2023/09/12 09:58:02;;;;;;;9.90;9.00;;;;;;;26.92;100.00;96113.16;5008944;28;103409;-78
2023/09/12 10:00:34;;;;;;;11.07;8.93;;;;;;;27.19;100.00;96109.41;4990890;28;105269;-78
2023/09/12 10:03:05;;;;;;;11.23;9.70;;;;;;;26.99;100.00;96107.84;5028700;28;101778;-78
2023/09/12 10:05:33;;;;;;;9.77;8.87;;;;;;;27.08;100.00;96102.94;5027701;28;103657;-78
2023/09/12 10:08:05;;;;;;;10.70;9.80;;;;;;;27.35;100.00;96101.91;5011109;28;102825;-78
2023/09/12 10:10:34;;;;;;;12.13;9.60;;;;;;;27.75;100.00;96094.78;4997694;28;101899;-78
2023/09/12 10:13:04;;;;;;;10.00;9.20;;;;;;;28.00;100.00;96097.91;5011062;28;102819;-78
2023/09/12 10:15:31;;;;;;;10.13;9.10;;;;;;;27.72;100.00;96092.75;4994553;28;102122;-78
2023/09/12 10:18:00;;;;;;;11.33;10.17;;;;;;;27.43;100.00;96087.19;4994075;28;103988;-78
2023/09/12 10:20:36;;;;;;;10.43;9.57;;;;;;;27.82;100.00;96088.66;5008125;28;105909;-78
2023/09/12 10:23:11;;;;;;;10.93;9.83;;;;;;;28.22;100.00;96091.59;4994184;28;101995;-78
2023/09/12 10:25:39;;;;;;;10.47;9.47;;;;;;;28.34;100.00;96096.84;4994346;28;105141;-78
2023/09/12 10:28:07;;;;;;;10.80;9.80;;;;;;;28.14;100.00;96084.44;5009857;28;105151;-78
2023/09/12 10:30:35;;;;;;;9.67;8.77;;;;;;;28.10;100.00;96083.59;5010913;28;102043;-78
2023/09/12 10:33:03;;;;;;;10.43;8.70;;;;;;;28.24;100.00;96079.13;4999944;28;105032;-78
2023/09/12 10:35:32;;;;;;;10.90;9.67;;;;;;;27.89;100.00;96088.78;5014251;28;101989;-78
2023/09/12 10:38:01;;;;;;;10.10;9.20;;;;;;;27.86;100.00;96084.84;5002221;28;105954;-79
2023/09/12 10:40:31;;;;;;;10.37;9.47;;;;;;;27.93;100.00;96078.66;4993556;28;104149;-78
2023/09/12 10:43:03;;;;;;;10.83;9.77;;;;;;;28.07;100.00;96084.34;4993338;28;102097;-78
2023/09/12 10:45:32;;;;;;;10.17;9.27;;;;;;;28.13;100.00;96072.72;4993195;28;104989;-78
2023/09/12 10:47:59;;;;;;;10.93;9.13;;;;;;;28.21;100.00;96073.59;4995966;28;105131;-78
2023/09/12 10:50:26;;;;;;;10.23;9.40;;;;;;;28.37;100.00;96076.94;5013869;28;102217;-78
2023/09/12 10:52:53;;;;;;;9.63;8.82;;;;;;;28.02;100.00;96066.31;5013574;28;104111;-78
2023/09/12 10:55:20;;;;;;;10.60;9.63;;;;;;;28.16;100.00;96071.19;5016534;28;104052;-78
2023/09/12 10:58:08;;;;;;;10.45;9.45;;;;;;;28.40;100.00;96076.22;5002963;28;104434;-78
2023/09/12 11:00:37;;;;;;;9.85;9.05;;;;;;;28.30;100.00;96071.38;4992551;28;105783;-78
2023/09/12 11:03:37;;;;;;;10.45;9.32;;;;;;;28.25;100.00;96072.50;4993289;28;101840;-78
2023/09/12 11:06:05;;;;;;;9.93;9.10;;;;;;;28.06;100.00;96071.84;4993511;28;104669;-81
2023/09/12 11:08:37;;;;;;;9.98;9.18;;;;;;;27.93;100.00;96067.72;5006205;28;105784;-81
2023/09/12 11:11:21;;;;;;;9.63;8.93;;;;;;;28.00;100.00;96073.31;5013627;28;101950;-82
2023/09/12 11:14:04;;;;;;;9.63;8.83;;;;;;;28.50;100.00;96061.91;5030302;28;104208;-81
2023/09/12 11:16:31;;;;;;;9.82;8.98;;;;;;;28.62;100.00;96069.88;5034377;28;103256;-81
2023/09/12 11:19:16;;;;;;;10.13;9.13;;;;;;;28.74;100.00;96058.66;5013111;28;104504;-81
2023/09/12 11:21:44;;;;;;;10.05;9.15;;;;;;;28.55;100.00;96064.31;5012409;28;105541;-81
2023/09/12 11:24:11;;;;;;;10.35;9.35;;;;;;;28.93;100.00;96072.19;5031473;28;102331;-82
2023/09/12 11:26:54;;;;;;;9.85;8.95;;;;;;;29.05;100.00;96069.97;5012716;28;105548;-82
2023/09/12 11:29:25;;;;;;;10.07;9.07;;;;;;;28.85;100.00;96074.06;5031034;28;102793;-81
2023/09/12 11:31:57;;;;;;;10.25;9.35;;;;;;;28.94;100.00;96065.53;5009567;28;101897;-81
2023/09/12 11:34:27;;;;;;;9.40;8.60;;;;;;;28.88;100.00;96065.06;5010990;28;102958;-82
2023/09/12 11:36:57;;;;;;;9.82;9.02;;;;;;;29.14;100.00;96055.97;5008851;28;104439;-82
2023/09/12 11:39:25;;;;;;;10.10;9.00;;;;;;;29.27;100.00;96066.28;5005908;28;102082;-79
2023/09/12 11:41:53;;;;;;;9.68;8.88;;;;;;;29.37;100.00;96068.34;4992485;28;105428;-93
2023/09/12 11:44:21;;;;;;;9.73;8.88;;;;;;;29.44;100.00;96064.88;4993208;28;102088;-79
2023/09/12 11:46:50;;;;;;;9.52;8.73;;;;;;;28.91;100.00;96064.34;4992640;28;105395;-79